• Join FlightAware (Why Join?)
  • Login
  • US Flag 
01:35PM EDT


 

Airport Tracker/Info


-or-


 

Live Flight TrackerFlight Track Log ✈ SWA2166 ✈ 27-Sep-2013 ✈ KDEN - KHOU

Flight Track Log - Related Links

Times and Time Zones

All times are in EDT time to prevent confusion due to time zone crossing. See the SWA2166 flight status page for this flight to view local times or setup timezone preferences in your user account.

Time Position Orientation Groundspeed Altitude Reporting Facility
EDT Latitude Longitude Course Direction KTS MPH feet Rate Location/Type
09:15PM 39.8760 -104.6220 North 172 198 6,100  Level FlightAware
09:15PM 39.8730 -104.6000 100° East 195 224 6,800 1,860 Climbing FlightAware
09:16PM 39.8680 -104.5690 102° East 233 268 7,500 2,160 Climbing FlightAware
09:16PM 39.8630 -104.5530 112° Southeast 242 278 8,100 3,180 Climbing FlightAware
09:16PM 39.8540 -104.5240 112° Southeast 248 285 9,200 2,580 Climbing FlightAware
09:17PM 39.8430 -104.4890 112° Southeast 278 320 10,000 840 Climbing FlightAware
09:17PM 39.8250 -104.4370 114° Southeast 335 386 10,000  Level FlightAware
09:17PM 39.8110 -104.4080 122° Southeast 353 406 10,000  Level FlightAware
09:18PM 39.8010 -104.3970 140° Southeast 359 413 10,000 600 Level FlightAware
09:18PM 39.7850 -104.3840 148° Southeast 361 415 10,200 3,000 Climbing FlightAware
09:18PM 39.7390 -104.3680 165° South 344 396 12,000 4,320 Climbing FlightAware
09:19PM 39.7140 -104.3680 180° South 328 377 13,400 4,860 Climbing FlightAware
09:19PM 39.6700 -104.3860 197° South 309 356 15,900 3,960 Climbing FlightAware
09:20PM 39.6330 -104.4050 202° Southwest 308 354 17,400 3,420 Climbing FlightAware
09:20PM 39.5860 -104.4390 209° Southwest 301 346 19,700 3,060 Climbing FlightAware
09:21PM 39.5470 -104.4680 210° Southwest 306 352 21,000 2,400 Climbing FlightAware
09:21PM 39.4990 -104.5030 209° Southwest 317 365 22,500 2,520 Climbing FlightAware
09:22PM 39.4590 -104.5310 208° Southwest 316 364 24,000 2,640 Climbing FlightAware
09:22PM 39.4110 -104.5630 207° Southwest 317 365 25,500 2,160 Climbing FlightAware
09:23PM 39.3620 -104.5900 203° Southwest 326 375 26,600 1,620 Climbing FlightAware
09:24PM 39.3090 -104.6140 199° South 339 390 27,500 1,500 Climbing FlightAware
09:24PM 39.2910 -104.6180 190° South 349 402 27,800 1,800 Climbing FlightAware
09:24PM 39.2530 -104.6090 170° South 371 427 28,600 1,560 Climbing FlightAware
09:25PM 39.2010 -104.5810 157° South 380 437 29,300 1,080 Climbing FlightAware
09:25PM 39.1450 -104.5520 158° South 391 450 29,800 1,320 Climbing FlightAware
09:26PM 39.0840 -104.5210 158° South 391 450 30,900 1,740 Climbing FlightAware
09:27PM 39.0240 -104.4900 158° South 391 450 31,900 1,320 Climbing FlightAware
09:27PM 38.9630 -104.4580 158° South 399 459 32,500 900 Climbing FlightAware
09:28PM 38.9000 -104.4260 158° South 406 467 33,000 420 Climbing FlightAware
09:28PM 38.8440 -104.3970 158° South 405 466 33,000 540 Level FlightAware
09:29PM 38.7570 -104.3520 158° South 406 467 33,800 1,020 Climbing FlightAware
09:30PM 38.6980 -104.3210 158° South 406 467 34,500 1,020 Climbing FlightAware
09:30PM 38.6370 -104.2900 158° South 408 470 35,000 360 Climbing FlightAware
09:31PM 38.5720 -104.2570 158° South 405 466 35,000  Level FlightAware
09:31PM 38.5200 -104.2310 159° South 407 468 35,000  Level FlightAware
09:32PM 38.4600 -104.2000 158° South 408 470 35,000  Level FlightAware
09:33PM 38.3740 -104.1560 158° South 409 471 35,000  Level FlightAware
09:33PM 38.3210 -104.1290 158° South 409 471 35,000  Level FlightAware
09:34PM 38.2670 -104.1010 158° South 409 471 35,000  Level FlightAware
09:35PM 38.2130 -104.0740 159° South 409 471 35,000  Level FlightAware
09:35PM 38.1600 -104.0460 157° South 409 471 35,000  Level FlightAware
09:36PM 38.1060 -104.0180 158° South 409 471 35,000  Level FlightAware
09:36PM 38.0510 -103.9900 158° South 409 471 35,000  Level FlightAware
09:37PM 37.9970 -103.9630 158° South 409 471 35,000  Level FlightAware
09:38PM 37.9430 -103.9350 158° South 409 471 35,000  Level FlightAware
09:38PM 37.8900 -103.9080 158° South 409 471 35,000  Level FlightAware
09:39PM 37.8360 -103.8800 158° South 409 471 35,000  Level FlightAware
09:39PM 37.7810 -103.8520 158° South 409 471 35,000  Level FlightAware
09:40PM 37.7270 -103.8240 158° South 409 471 35,000  Level FlightAware
09:41PM 37.6710 -103.7950 158° South 409 471 35,000  Level FlightAware
09:41PM 37.6170 -103.7680 158° South 409 471 35,000  Level FlightAware
09:42PM 37.5620 -103.7400 158° South 409 471 35,000 2,880 Level FlightAware
09:43PM 37.3767 -103.6561 158° South 395 455 39,000 2,220 Climbing Denver Center
09:44PM 37.2761 -103.6058 158° South 402 463 39,000  Level Denver Center
09:45PM 37.1703 -103.5128 145° Southeast 417 480 39,000  Level Denver Center
09:46PM 37.0822 -103.4278 142° Southeast 418 481 39,000  Level Denver Center
09:47PM 36.9794 -103.3283 142° Southeast 417 480 39,000  Level Denver Center
09:48PM 36.8894 -103.2414 142° Southeast 424 488 39,000  Level Denver Center
09:49PM 36.7997 -103.1564 143° Southeast 422 486 39,000  Level Denver Center
09:50PM 36.6803 -103.0453 143° Southeast 421 484 39,000  Level Albuquerque Center
09:51PM 36.5869 -102.9547 142° Southeast 423 487 39,000  Level Albuquerque Center
09:52PM 36.4922 -102.8661 143° Southeast 424 488 39,000  Level Albuquerque Center
09:53PM 36.3975 -102.7756 142° Southeast 429 494 39,000  Level Albuquerque Center
09:54PM 36.2994 -102.6836 143° Southeast 438 504 39,000  Level Albuquerque Center
09:55PM 36.2164 -102.5633 131° Southeast 459 528 39,000  Level Albuquerque Center
09:56PM 36.1381 -102.4411 128° Southeast 455 524 39,000  Level Albuquerque Center
09:57PM 36.0425 -102.2989 130° Southeast 450 518 39,000  Level Albuquerque Center
09:58PM 35.9642 -102.1797 129° Southeast 447 514 39,000  Level Albuquerque Center
09:59PM 35.8847 -102.0611 130° Southeast 447 514 39,000  Level Albuquerque Center
10:00PM 35.8064 -101.9433 129° Southeast 445 512 39,000  Level Albuquerque Center
10:01PM 35.7269 -101.8250 130° Southeast 446 513 39,000  Level Albuquerque Center
10:02PM 35.6467 -101.7067 130° Southeast 447 514 39,000  Level Albuquerque Center
10:03PM 35.5653 -101.5878 130° Southeast 450 518 39,000  Level Albuquerque Center
10:04PM 35.4850 -101.4756 131° Southeast 450 518 39,000  Level Albuquerque Center
10:05PM 35.3847 -101.3378 132° Southeast 450 518 39,000  Level Albuquerque Center
10:06PM 35.3117 -101.2389 132° Southeast 454 522 39,000  Level Albuquerque Center
10:07PM 35.2019 -101.1131 137° Southeast 449 517 39,000  Level Albuquerque Center
10:09PM 35.1117 -101.0092 137° Southeast 446 513 39,000  Level Albuquerque Center
10:14PM 34.6590 -100.4100 137° Southeast 475 547 39,000  Level FlightAware
10:14PM 34.6050 -100.3410 134° Southeast 474 545 39,000  Level FlightAware
10:15PM 34.5550 -100.2780 134° Southeast 473 544 39,000  Level FlightAware
10:15PM 34.4980 -100.2060 134° Southeast 471 542 39,000  Level FlightAware
10:16PM 34.4470 -100.1400 133° Southeast 470 541 39,000  Level FlightAware
10:17PM 34.4000 -100.0820 134° Southeast 470 541 39,000  Level FlightAware
10:17PM 34.3460 -100.0140 134° Southeast 468 539 39,000  Level FlightAware
10:18PM 34.2860 -99.9380 134° Southeast 468 539 39,000  Level FlightAware
10:18PM 34.2390 -99.8780 133° Southeast 468 539 39,000  Level FlightAware
10:19PM 34.1940 -99.8190 133° Southeast 468 539 39,000  Level FlightAware
10:20PM 34.1480 -99.7590 133° Southeast 468 539 39,000  Level FlightAware
10:20PM 34.0680 -99.6650 136° Southeast 464 534 39,000  Level FlightAware
10:21PM 34.0200 -99.6030 133° Southeast 465 535 39,000  Level FlightAware
10:21PM 33.9630 -99.5340 135° Southeast 463 533 39,000  Level FlightAware
10:22PM 33.9050 -99.4610 134° Southeast 463 533 39,000  Level FlightAware
10:23PM 33.8480 -99.3910 134° Southeast 464 534 39,000  Level FlightAware
10:23PM 33.7980 -99.3300 135° Southeast 464 534 39,000  Level FlightAware
10:24PM 33.7530 -99.2730 134° Southeast 464 534 39,000  Level FlightAware
10:25PM 33.7070 -99.2160 134° Southeast 464 534 39,000  Level FlightAware
10:25PM 33.6270 -99.1180 134° Southeast 467 537 39,000  Level FlightAware
10:26PM 33.5600 -99.0370 135° Southeast 468 539 39,000  Level FlightAware
10:26PM 33.5180 -98.9850 134° Southeast 468 539 39,000  Level FlightAware
10:27PM 33.4590 -98.9130 134° Southeast 466 536 39,000  Level FlightAware
10:28PM 33.4030 -98.8450 135° Southeast 466 536 39,000  Level FlightAware
10:28PM 33.3540 -98.7860 135° Southeast 466 536 39,000  Level FlightAware
10:29PM 33.3010 -98.7210 134° Southeast 465 535 39,000  Level FlightAware
10:29PM 33.2470 -98.6560 135° Southeast 463 533 39,000  Level FlightAware
10:30PM 33.1930 -98.5900 134° Southeast 463 533 39,000  Level FlightAware
10:31PM 33.1390 -98.5240 134° Southeast 463 533 39,000  Level FlightAware
10:31PM 33.0900 -98.4650 135° Southeast 464 534 39,000  Level FlightAware
10:32PM 33.0330 -98.3970 135° Southeast 463 533 39,000  Level FlightAware
10:32PM 32.9840 -98.3380 135° Southeast 463 533 39,000  Level FlightAware
10:33PM 32.9330 -98.2770 135° Southeast 463 533 39,000  Level FlightAware
10:33PM 32.8780 -98.2100 134° Southeast 463 533 39,000  Level FlightAware
10:34PM 32.8210 -98.1430 135° Southeast 463 533 39,000  Level FlightAware
10:35PM 32.7730 -98.0860 135° Southeast 462 532 39,000  Level FlightAware
10:35PM 32.7210 -98.0240 135° Southeast 461 531 39,000  Level FlightAware
10:36PM 32.6740 -97.9670 134° Southeast 461 531 39,000  Level FlightAware
10:36PM 32.6130 -97.8950 135° Southeast 460 529 39,000  Level FlightAware
10:37PM 32.5600 -97.8350 136° Southeast 458 527 39,000  Level FlightAware
10:38PM 32.4990 -97.7820 144° Southeast 455 524 39,000  Level FlightAware
10:38PM 32.4410 -97.7360 146° Southeast 454 522 39,000  Level FlightAware
10:39PM 32.3800 -97.6880 146° Southeast 454 522 39,000  Level FlightAware
10:39PM 32.3150 -97.6350 145° Southeast 452 520 39,000  Level FlightAware
10:40PM 32.2590 -97.5910 146° Southeast 453 521 39,000  Level FlightAware
10:40PM 32.1930 -97.5380 146° Southeast 453 521 39,000  Level FlightAware
10:41PM 32.1350 -97.4920 146° Southeast 453 521 39,000  Level FlightAware
10:42PM 32.0790 -97.4480 146° Southeast 453 521 39,000  Level FlightAware
10:42PM 32.0120 -97.3950 146° Southeast 454 522 39,000  Level FlightAware
10:43PM 31.9580 -97.3520 146° Southeast 455 524 39,000  Level FlightAware
10:43PM 31.8930 -97.3010 146° Southeast 456 525 39,000  Level FlightAware
10:44PM 31.8320 -97.2530 146° Southeast 457 526 39,000  Level FlightAware
10:44PM 31.7730 -97.2060 146° Southeast 457 526 39,000  Level FlightAware
10:45PM 31.7070 -97.1550 147° Southeast 457 526 39,000  Level FlightAware
10:46PM 31.6400 -97.1020 146° Southeast 457 526 39,000  Level FlightAware
10:46PM 31.5830 -97.0580 147° Southeast 459 528 39,000  Level FlightAware
10:47PM 31.5240 -97.0110 146° Southeast 458 527 39,000  Level FlightAware
10:47PM 31.4650 -96.9650 146° Southeast 457 526 39,000  Level FlightAware
10:48PM 31.3990 -96.9140 147° Southeast 457 526 39,000 -120 Level FlightAware
10:49PM 31.3360 -96.8650 146° Southeast 457 526 38,900 -1,320 Descending FlightAware
10:49PM 31.2770 -96.8190 146° Southeast 460 529 37,500 -2,760 Descending FlightAware
10:50PM 31.2080 -96.7690 148° Southeast 466 536 35,700 -3,000 Descending FlightAware
10:50PM 31.1670 -96.7520 160° South 466 536 34,700 -2,760 Descending FlightAware
10:51PM 31.1060 -96.7420 172° South 462 532 33,400 -2,400 Descending FlightAware
10:51PM 31.0370 -96.7220 166° South 452 520 32,200 -2,640 Descending FlightAware
10:52PM 30.9690 -96.6840 154° Southeast 451 519 30,400 -3,360 Descending FlightAware
10:52PM 30.9090 -96.6460 151° Southeast 456 525 28,400 -3,660 Descending FlightAware
10:53PM 30.8430 -96.6040 151° Southeast 457 526 26,300 -3,300 Descending FlightAware
10:54PM 30.7730 -96.5600 152° Southeast 447 514 24,400 -3,000 Descending FlightAware
10:54PM 30.7150 -96.5230 151° Southeast 438 504 22,800 -3,000 Descending FlightAware
10:55PM 30.6520 -96.4840 152° Southeast 425 489 21,100 -2,880 Descending FlightAware
10:55PM 30.5910 -96.4460 152° Southeast 414 476 19,400 -2,580 Descending FlightAware
10:56PM 30.5300 -96.4080 152° Southeast 399 459 18,000 -2,220 Descending FlightAware
10:56PM 30.4790 -96.3760 152° Southeast 387 445 16,900 -2,160 Descending FlightAware
10:57PM 30.4230 -96.3410 152° Southeast 373 429 15,600 -2,040 Descending FlightAware
10:58PM 30.3720 -96.3100 152° Southeast 361 415 14,500 -1,860 Descending FlightAware
10:58PM 30.3250 -96.2800 151° Southeast 350 403 13,500 -1,920 Descending FlightAware
10:59PM 30.2590 -96.2390 152° Southeast 336 387 12,000 -1,920 Descending FlightAware
10:59PM 30.2180 -96.2140 152° Southeast 327 376 11,100 -1,020 Descending FlightAware
11:00PM 30.1790 -96.1910 153° Southeast 302 348 11,000 -120 Descending FlightAware
11:01PM 30.1230 -96.1620 156° South 297 342 11,000  Level FlightAware
11:01PM 30.0830 -96.1400 155° Southeast 295 339 11,000  Level FlightAware
11:02PM 30.0370 -96.1160 156° South 299 344 11,000  Level FlightAware
11:02PM 29.9900 -96.0910 155° Southeast 298 343 11,000  Level FlightAware
11:03PM 29.9530 -96.0710 155° Southeast 298 343 11,000  Level FlightAware
11:04PM 29.9040 -96.0450 155° Southeast 298 343 11,000  Level FlightAware
11:04PM 29.8800 -96.0320 155° Southeast 299 344 11,000  Level FlightAware
11:04PM 29.8720 -96.0240 139° Southeast 302 348 11,000  Level FlightAware
11:05PM 29.8510 -95.9700 114° Southeast 309 356 11,000 -120 Level FlightAware
11:05PM 29.8390 -95.9120 103° East 309 356 10,900 -120 Descending FlightAware
11:06PM 29.8280 -95.8630 104° East 309 356 10,900  Level FlightAware
11:07PM 29.8170 -95.8140 104° East 309 356 10,900 -3,000 Level FlightAware
11:07PM 29.8070 -95.7690 104° East 287 330 8,200 -5,100 Descending FlightAware
11:07PM 29.8010 -95.7400 103° East 286 329 7,700 -1,560 Descending FlightAware
11:07PM 29.7940 -95.7110 106° East 284 327 7,200 -1,620 Descending FlightAware
11:08PM 29.7860 -95.6730 104° East 282 325 6,500 -1,500 Descending FlightAware
11:08PM 29.7820 -95.6570 106° East 281 323 6,300 -1,380 Descending FlightAware
11:08PM 29.7760 -95.6280 103° East 280 322 5,800 -1,560 Descending FlightAware
11:09PM 29.7690 -95.5950 104° East 276 318 5,200 -1,680 Descending FlightAware
11:09PM 29.7640 -95.5760 107° East 272 313 4,800 -1,680 Descending FlightAware
11:09PM 29.7580 -95.5500 105° East 265 305 4,300 -1,620 Descending FlightAware
11:10PM 29.7520 -95.5190 103° East 259 298 3,700 -1,620 Descending FlightAware
11:10PM 29.7450 -95.4880 105° East 251 289 3,100 -1,560 Descending FlightAware
11:10PM 29.7420 -95.4740 104° East 249 287 2,800 -1,380 Descending FlightAware
11:11PM 29.7320 -95.4290 104° East 219 252 2,000 -1,020 Descending FlightAware
11:11PM 29.7290 -95.4170 106° East 200 230 2,000  Level FlightAware
11:11PM 29.7250 -95.3980 104° East 168 193 2,000  Level FlightAware
11:12PM 29.7200 -95.3770 105° East 151 174 2,000 -300 Level FlightAware
11:12PM 29.7150 -95.3630 112° Southeast 145 167 1,800 -600 Descending FlightAware
11:13PM 29.7060 -95.3520 133° Southeast 141 162 1,600 -720 Descending FlightAware
11:13PM 29.6970 -95.3390 129° Southeast 125 144 1,300 -720 Descending FlightAware
11:13PM 29.6880 -95.3300 139° Southeast 128 147 1,100 -600 Descending FlightAware
11:14PM 29.6800 -95.3200 133° Southeast 129 148 900 -720 Descending FlightAware
11:14PM 29.6710 -95.3090 133° Southeast 130 150 600 -720 Descending FlightAware
11:14PM 29.6650 -95.3020 135° Southeast 130 150 500 -600 Descending FlightAware
11:14PM 29.6560 -95.2920 136° Southeast 132 152 300 -600 Descending FlightAware
11:15PM 29.6490 -95.2840 135° Southeast 134 154 -1,080 Descending FlightAware
11:15PM 29.6380 -95.2700 132° Southeast 134 154  Level FlightAware